Latest Weather Observations for Oodnadatta

IDS60801

Issued at 8:31 am CST Friday 1 July 2016 (issued every 30 minutes, with the page automatically refreshed every 10 minutes)

About weather observations | Map of weather stations | Latest weather observations for SA | Other Formats
Station Details ID: 017043 Name: OODNADATTA AIRPORT Lat: -27.56 Lon: 135.45 Height: 116.5 m
Data from the previous 72 hours. | See also: Recent months at Oodnadatta
Date/Time
CST
Temp
°C
App
Temp
°C
Dew
Point
°C
Rel
Hum
%
Delta-T
°C
Wind Press
QNH
hPa
Press
MSL
hPa
Rain since
9am
mm
Dir  Spd
km/h
Gust
km/h
Spd
kts
Gust
kts
01/08:30am 9.0 7.2 7.9 93 0.5 S 7 9 4 5 1029.0 1029.0 0.0
01/08:00am 7.7 5.7 7.1 96 0.3 S 7 9 4 5 1028.1 1028.2 0.0
01/07:30am 7.1 5.0 6.5 96 0.3 S 7 9 4 5 1027.2 1027.3 0.0
01/07:00am 7.0 4.0 6.1 94 0.4 SSW 11 13 6 7 1026.9 1027.0 0.0
01/06:30am 7.3 4.3 6.2 93 0.5 SSW 11 13 6 7 1026.9 1027.0 0.0
01/06:00am 7.4 3.7 6.2 92 0.5 SSW 15 17 8 9 1026.6 1026.7 0.0
01/05:30am 7.5 4.5 5.8 89 0.8 SSW 11 13 6 7 1026.0 1026.1 0.0
01/05:00am 8.0 5.4 6.1 88 0.9 SSW 9 11 5 6 1025.8 1025.8 0.0
01/04:30am 8.1 4.7 5.9 86 1.0 SSW 13 13 7 7 1025.2 1025.2 0.0
01/04:00am 8.7 6.1 6.2 84 1.2 S 9 9 5 5 1025.0 1025.0 0.0
01/03:30am 8.5 5.9 6.1 85 1.1 S 9 11 5 6 1024.7 1024.7 0.0
01/03:00am 7.9 5.3 6.2 89 0.8 SW 9 13 5 7 1024.4 1024.4 0.0
01/02:30am 9.0 7.1 6.6 85 1.1 NW 6 7 3 4 1023.9 1023.9 0.0
01/02:00am 8.8 6.3 6.6 86 1.0 WNW 9 11 5 6 1024.0 1024.0 0.0
01/01:30am 9.0 7.0 6.3 83 1.2 SSW 6 7 3 4 1023.9 1023.9 0.0
01/01:00am 10.1 7.6 6.6 79 1.6 SSW 9 13 5 7 1024.0 1024.0 0.0
01/12:30am 11.3 9.2 6.8 74 2.1 SSW 7 11 4 6 1023.9 1023.9 0.0
01/12:00am 11.4 9.6 7.1 75 2.1 SSW 6 7 3 4 1023.9 1023.9 0.0
 
Date/Time
CST
Temp
°C
App
Temp
°C
Dew
Point
°C
Rel
Hum
%
Delta-T
°C
Wind Press
QNH
hPa
Press
MSL
hPa
Rain since
9am
mm
Dir  Spd
km/h
Gust
km/h
Spd
kts
Gust
kts
30/11:30pm 11.3 9.5 7.2 76 2.0 SSW 6 9 3 5 1024.0 1024.0 0.0
30/11:00pm 11.6 9.3 7.5 76 2.0 SSW 9 11 5 6 1023.9 1023.9 0.0
30/10:30pm 12.5 9.9 7.8 73 2.3 SSW 11 13 6 7 1023.7 1023.7 0.0
30/10:00pm 12.7 9.8 8.2 74 2.2 SSW 13 13 7 7 1023.5 1023.5 0.0
30/09:30pm 13.3 10.5 8.6 73 2.4 SSW 13 15 7 8 1023.4 1023.4 0.0
30/09:00pm 14.0 11.8 9.2 73 2.4 SSW 11 13 6 7 1023.2 1023.2 0.0
30/08:30pm 14.4 12.2 9.4 72 2.6 SSW 11 13 6 7 1022.9 1022.9 0.0
30/08:00pm 15.6 12.3 9.5 67 3.2 SW 17 19 9 10 1022.5 1022.5 0.0
30/07:30pm 15.6 12.7 9.5 67 3.2 SW 15 15 8 8 1022.3 1022.3 0.0
30/07:00pm 16.7 14.0 9.1 61 4.0 SSW 13 15 7 8 1021.9 1021.9 0.0
30/06:30pm 17.2 15.1 9.6 61 4.0 SSW 11 13 6 7 1021.4 1021.4 0.0
30/06:00pm 18.3 15.6 9.1 55 4.8 SW 13 15 7 8 1021.0 1021.0 0.0
30/05:30pm 19.8 17.4 8.8 49 5.8 SW 11 15 6 8 1020.6 1020.6 0.0
30/05:00pm 20.7 17.2 8.7 46 6.3 SW 17 22 9 12 1020.4 1020.4 0.0
30/04:30pm 21.0 17.0 8.3 44 6.7 SW 19 24 10 13 1020.1 1020.1 0.0
30/04:00pm 21.4 17.2 8.3 43 6.9 SW 20 30 11 16 1019.9 1019.9 0.0
30/03:30pm 21.4 18.0 9.0 45 6.6 SSW 17 24 9 13 1019.8 1019.8 0.0
30/03:00pm 21.4 17.6 9.0 45 6.6 SSW 19 28 10 15 1019.7 1019.7 0.0
30/02:30pm 21.7 17.5 9.6 46 6.5 SSW 22 28 12 15 1019.8 1019.8 0.0
30/02:00pm 21.2 16.5 9.1 46 6.5 S 24 32 13 17 1020.1 1020.1 0.0
30/01:30pm 21.0 15.7 8.6 45 6.5 SSW 26 37 14 20 1020.5 1020.5 0.0
30/01:00pm 20.6 15.9 7.9 44 6.6 SSW 22 30 12 16 1020.7 1020.7 0.0
30/12:30pm 20.0 15.1 8.4 47 6.1 S 24 30 13 16 1021.0 1021.0 0.0
30/12:00pm 19.3 14.9 7.4 46 6.1 SSW 20 30 11 16 1021.4 1021.4 0.0
30/11:30am 18.7 15.1 8.4 51 5.3 SSW 17 24 9 13 1021.7 1021.7 0.0
30/11:00am 17.6 13.3 7.1 50 5.3 SSW 19 24 10 13 1021.8 1021.8 0.0
30/10:30am 16.9 14.7 7.8 55 4.6 SW 9 17 5 9 1021.9 1021.9 0.0
30/10:00am 14.5 12.3 8.0 65 3.3 NW 9 11 5 6 1022.1 1022.1 0.0
30/09:30am 13.2 10.2 7.6 69 2.7 NW 13 17 7 9 1022.0 1022.0 0.0
30/09:00am 12.4 10.2 7.7 73 2.3 NW 9 13 5 7 1021.5 1021.5 0.0
30/08:30am 10.8 8.9 7.5 80 1.6 NW 7 9 4 5 1021.3 1021.3 0.0
30/08:00am 10.0 7.3 7.3 83 1.3 NNW 11 13 6 7 1020.9 1020.9 0.0
30/07:30am 8.9 6.1 6.9 87 0.9 NNW 11 13 6 7 1020.7 1020.7 0.0
30/07:00am 8.9 6.1 6.9 87 0.9 NNW 11 13 6 7 1020.4 1020.4 0.0
30/06:30am 9.1 5.9 6.7 85 1.1 NW 13 15 7 8 1020.0 1020.0 0.0
30/06:00am 9.0 6.9 6.8 86 1.0 NW 7 9 4 5 1019.6 1019.6 0.0
30/05:30am 8.7 6.3 6.8 88 0.9 NNW 9 13 5 7 1019.1 1019.2 0.0
30/05:00am 8.3 5.4 6.6 89 0.8 NNW 11 13 6 7 1018.8 1018.9 0.0
30/04:30am 8.8 5.5 6.4 85 1.1 NNW 13 13 7 7 1019.0 1019.1 0.0
30/04:00am 9.5 5.5 6.6 82 1.4 NNW 17 20 9 11 1018.8 1018.9 0.0
30/03:30am 9.9 6.3 6.8 81 1.5 NNW 15 17 8 9 1018.8 1018.9 0.0
30/03:00am 10.0 7.2 6.9 81 1.5 NNW 11 13 6 7 1019.0 1019.1 0.0
30/02:30am 10.3 7.1 7.0 80 1.6 NNW 13 15 7 8 1019.3 1019.4 0.0
30/02:00am 11.1 7.1 6.6 74 2.1 NNW 17 20 9 11 1019.5 1019.5 0.0
30/01:30am 11.6 7.2 6.5 71 2.4 NNW 19 22 10 12 1019.5 1019.5 0.0
30/01:00am 11.4 8.9 6.5 72 2.3 N 9 15 5 8 1019.7 1019.7 0.0
30/12:30am 10.7 8.2 6.5 75 2.0 N 9 13 5 7 1020.2 1020.2 0.0
30/12:00am 10.8 7.1 6.4 74 2.1 N 15 19 8 10 1020.4 1020.4 0.0
 
Date/Time
CST
Temp
°C
App
Temp
°C
Dew
Point
°C
Rel
Hum
%
Delta-T
°C
Wind Press
QNH
hPa
Press
MSL
hPa
Rain since
9am
mm
Dir  Spd
km/h
Gust
km/h
Spd
kts
Gust
kts
29/11:30pm 11.2 7.1 6.3 72 2.3 N 17 20 9 11 1020.4 1020.4 0.0
29/11:00pm 11.3 7.2 6.2 71 2.4 N 17 20 9 11 1020.6 1020.6 0.0
29/10:30pm 11.6 7.5 6.3 70 2.5 N 17 22 9 12 1020.6 1020.6 0.0
29/10:00pm 12.0 7.9 6.3 68 2.7 N 17 19 9 10 1020.4 1020.4 0.0
29/09:30pm 12.2 8.1 6.3 67 2.8 NNE 17 20 9 11 1020.5 1020.5 0.0
29/09:00pm 12.5 8.4 6.3 66 2.9 N 17 20 9 11 1020.4 1020.4 0.0
29/08:30pm 12.7 8.6 6.3 65 3.0 N 17 22 9 12 1020.4 1020.4 0.0
29/08:00pm 12.7 9.0 6.5 66 3.0 N 15 19 8 10 1020.4 1020.4 0.0
29/07:30pm 12.9 9.2 6.3 64 3.1 NNE 15 19 8 10 1020.3 1020.3 0.0
29/07:00pm 13.4 10.0 6.0 61 3.5 NNE 13 17 7 9 1020.1 1020.1 0.0
29/06:30pm 14.2 10.4 5.8 57 4.0 N 15 19 8 10 1019.8 1019.8 0.0
29/06:00pm 15.1 11.2 5.3 52 4.7 N 15 19 8 10 1019.9 1019.9 0.0
29/05:30pm 16.2 11.9 5.2 48 5.3 N 17 20 9 11 1019.8 1019.8 0.0
29/05:00pm 17.0 12.2 4.7 44 5.9 N 19 26 10 14 1019.8 1019.8 0.0
29/04:30pm 17.5 12.5 4.8 43 6.1 N 20 28 11 15 1019.9 1019.9 0.0
29/04:00pm 17.6 12.2 4.6 42 6.2 NNW 22 30 12 16 1020.0 1020.0 0.0
29/03:30pm 17.5 11.7 4.5 42 6.2 NNW 24 30 13 16 1020.0 1020.0 0.0
29/03:00pm 17.5 11.3 4.1 41 6.3 N 26 32 14 17 1020.2 1020.2 0.0
29/02:30pm 16.9 11.1 4.6 44 5.8 N 24 32 13 17 1020.5 1020.5 0.0
29/02:00pm 17.0 11.4 5.3 46 5.6 N 24 35 13 19 1021.0 1021.0 0.0
29/01:30pm 16.2 9.7 4.6 46 5.5 NNW 28 39 15 21 1021.7 1021.7 0.0
29/01:00pm 16.0 9.1 4.7 47 5.3 N 30 37 16 20 1022.4 1022.4 0.0
29/12:30pm 16.3 9.3 5.9 50 5.0 N 32 41 17 22 1022.7 1022.7 0.0
29/12:00pm 15.0 7.8 5.0 51 4.7 N 32 41 17 22 1023.7 1023.7 0.0
29/11:30am 14.3 7.2 5.7 56 4.1 N 32 43 17 23 1024.5 1024.5 0.0
29/11:00am 13.6 5.9 5.5 58 3.8 N 35 44 19 24 1024.8 1024.8 0.0
29/10:30am 13.0 5.9 5.7 61 3.4 N 32 41 17 22 1024.9 1024.9 0.0
29/10:00am 12.1 5.5 6.2 67 2.8 NNE 30 39 16 21 1025.4 1025.4 0.0
29/09:30am 11.1 5.7 6.3 72 2.2 NNE 24 32 13 17 1025.7 1025.7 0.0
29/09:00am 9.8 5.2 6.3 79 1.6 NNE 20 28 11 15 1025.7 1025.7 0.2
29/08:30am 8.7 4.2 6.2 84 1.1 NNE 19 24 10 13 1025.3 1025.3 0.2
29/08:00am 7.3 2.2 5.8 90 0.7 NE 22 28 12 15 1024.9 1024.9 0.2
29/07:30am 6.1 1.3 5.4 95 0.3 NE 20 22 11 12 1025.1 1025.1 0.2
29/07:00am 4.9 0.5 4.6 98 0.1 ENE 17 20 9 11 1025.0 1025.0 0.2
29/06:30am 4.5 0.8 4.2 98 0.1 ENE 13 15 7 8 1024.9 1024.9 0.2
29/06:00am 4.3 0.5 4.0 98 0.1 NE 13 15 7 8 1024.8 1024.8 0.2
29/05:30am 4.7 1.0 4.4 98 0.1 NE 13 15 7 8 1024.8 1024.8 0.2
29/05:00am 4.6 0.9 4.2 97 0.2 NE 13 15 7 8 1024.8 1024.8 0.2
29/04:30am 5.2 1.9 4.8 97 0.2 ENE 11 15 6 8 1025.0 1025.0 0.2
29/04:00am 5.0 2.4 4.3 95 0.3 NNE 7 9 4 5 1025.2 1025.2 0.2
29/03:30am 5.6 3.3 4.7 94 0.4 NNE 6 9 3 5 1025.1 1025.1 0.2
29/03:00am 7.0 4.7 5.5 90 0.7 NNE 7 9 4 5 1025.2 1025.2 0.2
29/02:30am 7.1 4.4 5.6 90 0.7 NNE 9 11 5 6 1025.3 1025.3 0.2
29/02:00am 7.6 4.5 5.6 87 0.9 NNE 11 17 6 9 1025.2 1025.2 0.2
29/01:30am 8.6 4.1 5.9 83 1.2 NNE 19 24 10 13 1024.9 1024.9 0.2
29/01:00am 8.9 4.8 6.0 82 1.3 NNE 17 22 9 12 1024.8 1024.8 0.2
29/12:30am 8.8 4.3 6.3 84 1.2 NE 19 22 10 12 1024.9 1024.9 0.2
29/12:00am 8.9 4.9 6.5 85 1.1 NNE 17 20 9 11 1025.1 1025.1 0.2
 
Date/Time
CST
Temp
°C
App
Temp
°C
Dew
Point
°C
Rel
Hum
%
Delta-T
°C
Wind Press
QNH
hPa
Press
MSL
hPa
Rain since
9am
mm
Dir  Spd
km/h
Gust
km/h
Spd
kts
Gust
kts
28/11:30pm 8.8 4.8 6.6 86 1.0 NE 17 19 9 10 1025.4 1025.4 0.2
28/11:00pm 8.9 5.3 6.7 86 1.0 NE 15 17 8 9 1025.6 1025.6 0.2
28/10:30pm 8.9 5.3 6.7 86 1.0 NE 15 17 8 9 1025.7 1025.7 0.2
28/10:00pm 9.2 5.9 6.6 84 1.2 NE 13 17 7 9 1025.8 1025.8 0.2
28/09:30pm 9.8 6.2 6.9 82 1.4 NE 15 17 8 9 1025.9 1025.9 0.2
28/09:00pm 10.0 6.5 7.3 83 1.3 NE 15 17 8 9 1025.9 1025.9 0.2
28/08:30pm 10.5 7.4 7.4 81 1.5 NE 13 17 7 9 1025.9 1025.9 0.2
28/08:00pm 11.2 7.7 7.1 76 2.0 NNE 15 17 8 9 1025.9 1025.9 0.2
28/07:30pm 11.6 8.2 7.5 76 2.0 NNE 15 17 8 9 1025.6 1025.6 0.2
28/07:00pm 12.6 9.5 7.3 70 2.6 NNE 13 15 7 8 1025.4 1025.4 0.2
28/06:30pm 13.3 10.1 6.9 65 3.1 NNE 13 17 7 9 1025.2 1025.2 0.2
28/06:00pm 14.2 10.5 6.3 59 3.8 NNE 15 20 8 11 1025.0 1025.0 0.2
28/05:30pm 15.3 10.5 5.8 53 4.6 NNE 20 26 11 14 1024.7 1024.7 0.2
28/05:00pm 16.0 10.8 5.3 49 5.1 NE 22 30 12 16 1024.6 1024.6 0.2
28/04:30pm 16.3 11.6 5.9 50 5.0 NNE 20 28 11 15 1024.7 1024.7 0.2
28/04:00pm 16.6 11.9 5.9 49 5.2 NNE 20 30 11 16 1024.9 1024.9 0.2
28/03:30pm 16.7 12.1 5.6 48 5.4 NNE 19 26 10 14 1025.0 1025.0 0.2
28/03:00pm 16.6 11.4 5.3 47 5.4 NNE 22 32 12 17 1025.1 1025.1 0.2
28/02:30pm 16.5 11.7 5.8 49 5.2 NNE 20 28 11 15 1025.3 1025.3 0.2
28/02:00pm 16.4 11.6 5.7 49 5.2 NNE 20 28 11 15 1025.6 1025.6 0.2
28/01:30pm 16.5 11.4 5.8 49 5.2 NNE 22 30 12 16 1026.0 1026.1 0.2
28/01:00pm 16.2 12.3 7.2 55 4.5 NNE 17 28 9 15 1026.4 1026.5 0.2
28/12:30pm 15.9 11.3 6.3 53 4.7 NNE 20 33 11 18 1027.0 1027.1 0.0
28/12:00pm 15.4 10.5 5.0 50 4.9 NNE 20 30 11 16 1027.4 1027.5 0.0
28/11:30am 15.7 11.6 6.4 54 4.5 NNE 17 24 9 13 1028.0 1028.1 0.0
28/11:00am 14.5 11.8 7.5 63 3.5 NNW 11 19 6 10 1028.4 1028.4 0.0
28/10:30am 13.2 11.1 8.3 72 2.4 NNW 9 13 5 7 1028.7 1028.7 0.0
28/10:00am 11.6 10.1 8.3 80 1.6 N 6 7 3 4 1028.7 1028.7 0.0
28/09:30am 10.5 9.3 8.1 85 1.2 N 4 7 2 4 1028.5 1028.5 0.0
28/09:00am 8.1 7.3 6.7 91 0.6 CALM 0 6 0 3 1028.2 1028.3 0.0

Other Formats:

Comma delimited format used in spreadsheet applications
http://www.bom.gov.au/fwo/IDS60801/IDS60801.94476.axf

JavaScript Object Notation format (JSON) in row-major order
http://www.bom.gov.au/fwo/IDS60801/IDS60801.94476.json